Time;durP1;ratioP1;P1;durP2;ratioP2;P2;SDS_P1;SDS_P2;PMS_P1;PMS_P2;Temp;Humidity;BMP_temperature;BMP_pressure;BME280_temperature;BME280_humidity;BME280_pressure;Samples;Min_cycle;Max_cycle;Signal;HPM_P1;HPM_P2
2023/09/05 00:00:11;;;;;;;13.38;11.20;;;24.00;99.90;;;;;;5120144;29;20063;-74
2023/09/05 00:02:41;;;;;;;11.85;10.95;;;24.00;99.90;;;;;;5123027;29;20090;-75
2023/09/05 00:05:12;;;;;;;12.48;11.25;;;24.00;99.90;;;;;;5124781;28;20025;-74
2023/09/05 00:07:43;;;;;;;12.23;11.20;;;24.20;99.90;;;;;;5122929;28;20098;-76
2023/09/05 00:10:14;;;;;;;12.60;11.45;;;24.10;99.90;;;;;;5124641;28;20154;-75
2023/09/05 00:12:46;;;;;;;12.30;11.15;;;24.10;99.90;;;;;;5122427;28;20038;-74
2023/09/05 00:15:17;;;;;;;12.68;11.63;;;24.10;99.90;;;;;;5120049;28;20035;-74
2023/09/05 00:17:48;;;;;;;11.02;10.10;;;24.10;99.90;;;;;;5121187;29;20027;-75
2023/09/05 00:20:19;;;;;;;9.93;8.70;;;24.10;99.90;;;;;;5124048;28;20530;-74
2023/09/05 00:22:50;;;;;;;10.82;9.82;;;24.00;99.90;;;;;;5123681;28;20494;-74
2023/09/05 00:25:21;;;;;;;10.68;9.65;;;24.20;99.90;;;;;;5124665;28;20870;-75
2023/09/05 00:27:52;;;;;;;11.70;10.55;;;24.20;99.90;;;;;;5123797;28;20042;-74
2023/09/05 00:30:23;;;;;;;11.20;9.93;;;24.20;99.90;;;;;;5123608;28;20047;-76
2023/09/05 00:32:53;;;;;;;12.10;10.18;;;24.10;99.90;;;;;;5123749;28;20032;-73
2023/09/05 00:35:24;;;;;;;12.05;10.88;;;24.20;99.90;;;;;;5123705;28;20035;-74
2023/09/05 00:37:55;;;;;;;11.13;10.00;;;24.10;99.90;;;;;;5113541;28;20032;-73
2023/09/05 00:40:27;;;;;;;11.70;10.57;;;24.20;99.90;;;;;;5105936;29;20027;-74
2023/09/05 00:42:58;;;;;;;14.20;10.30;;;24.10;99.90;;;;;;5128156;28;20038;-76
2023/09/05 00:45:29;;;;;;;17.92;11.45;;;24.20;99.90;;;;;;5127884;28;20629;-76
2023/09/05 00:48:02;;;;;;;13.10;11.32;;;24.20;99.90;;;;;;5124912;28;20040;-76
2023/09/05 00:50:33;;;;;;;14.82;12.18;;;24.20;99.90;;;;;;5120893;28;20119;-73
2023/09/05 00:53:04;;;;;;;13.18;11.88;;;24.20;99.90;;;;;;5118508;29;20114;-74
2023/09/05 00:55:34;;;;;;;15.45;11.80;;;24.20;99.90;;;;;;5126287;29;20015;-73
2023/09/05 00:58:05;;;;;;;12.32;11.10;;;24.10;99.90;;;;;;5127699;28;20467;-73
2023/09/05 01:00:36;;;;;;;12.30;10.82;;;24.20;99.90;;;;;;5127103;28;20106;-75
2023/09/05 01:03:07;;;;;;;12.30;10.18;;;24.20;99.90;;;;;;5126037;28;20114;-73
2023/09/05 01:05:43;;;;;;;11.90;9.25;;;24.20;99.90;;;;;;5127349;28;20019;-76
2023/09/05 01:08:26;;;;;;;11.07;9.88;;;24.20;99.90;;;;;;5141434;28;20070;-76
2023/09/05 01:11:00;;;;;;;11.45;10.35;;;24.20;99.90;;;;;;5120844;28;20400;-76
2023/09/05 01:13:31;;;;;;;11.07;9.98;;;24.20;99.90;;;;;;5126712;28;20117;-76
2023/09/05 01:16:03;;;;;;;12.38;10.02;;;24.20;99.90;;;;;;5128031;28;20360;-74
2023/09/05 01:18:34;;;;;;;12.48;10.27;;;24.20;99.90;;;;;;5126934;29;20074;-73
2023/09/05 01:21:21;;;;;;;11.38;10.15;;;24.30;99.90;;;;;;5126796;28;20039;-73
2023/09/05 01:24:11;;;;;;;11.07;10.07;;;24.30;99.90;;;;;;5127895;28;20093;-74
2023/09/05 01:26:43;;;;;;;13.27;11.00;;;24.30;99.90;;;;;;5125346;28;20059;-74
2023/09/05 01:29:18;;;;;;;11.77;10.57;;;24.30;99.90;;;;;;5125687;28;20399;-73
2023/09/05 01:31:48;;;;;;;10.88;9.98;;;24.30;99.90;;;;;;5127354;28;20043;-75
2023/09/05 01:34:19;;;;;;;11.98;10.38;;;24.30;99.90;;;;;;5123112;29;20037;-72
2023/09/05 01:36:50;;;;;;;22.85;10.95;;;24.10;99.90;;;;;;5116903;29;20352;-73
2023/09/05 01:39:21;;;;;;;16.73;12.35;;;23.80;99.90;;;;;;5128102;28;20479;-75
2023/09/05 01:41:52;;;;;;;23.30;11.38;;;23.50;99.90;;;;;;5117852;28;20020;-72
2023/09/05 01:44:23;;;;;;;20.52;10.73;;;23.00;99.90;;;;;;5123287;29;20042;-75
2023/09/05 01:46:54;;;;;;;24.88;11.60;;;23.00;99.90;;;;;;5126553;28;20027;-74
2023/09/05 01:49:24;;;;;;;20.95;10.80;;;23.00;99.90;;;;;;5127957;28;20486;-73
2023/09/05 01:51:55;;;;;;;17.25;10.02;;;22.90;99.90;;;;;;5127633;28;20032;-73
2023/09/05 01:54:26;;;;;;;21.58;11.23;;;22.70;99.90;;;;;;5127172;28;20368;-73
2023/09/05 01:56:57;;;;;;;20.48;10.80;;;22.60;99.90;;;;;;5124846;29;20086;-73
2023/09/05 01:59:28;;;;;;;19.65;10.35;;;22.70;99.90;;;;;;5127888;28;20518;-73
2023/09/05 02:01:59;;;;;;;19.80;10.80;;;22.60;99.90;;;;;;5127690;28;20020;-75
2023/09/05 02:04:29;;;;;;;23.42;10.05;;;22.40;99.90;;;;;;5126362;28;20404;-73
2023/09/05 02:07:00;;;;;;;18.40;9.25;;;22.50;99.90;;;;;;5127626;28;20046;-73
2023/09/05 02:09:31;;;;;;;17.63;9.85;;;22.40;99.90;;;;;;5127613;28;20440;-74
2023/09/05 02:12:02;;;;;;;14.52;9.75;;;22.40;99.90;;;;;;5127492;28;20094;-74
2023/09/05 02:14:33;;;;;;;18.30;9.77;;;22.40;99.90;;;;;;5125750;28;20038;-72
2023/09/05 02:17:04;;;;;;;13.98;8.38;;;22.30;99.90;;;;;;5126242;29;20419;-73
2023/09/05 02:19:34;;;;;;;15.52;8.02;;;22.30;99.90;;;;;;5127537;28;20110;-74
2023/09/05 02:22:05;;;;;;;18.33;8.98;;;22.20;99.90;;;;;;5126918;28;20023;-72
2023/09/05 02:24:36;;;;;;;15.20;8.68;;;22.30;99.90;;;;;;5121848;29;20032;-71
2023/09/05 02:27:07;;;;;;;15.80;8.60;;;22.20;99.90;;;;;;5125582;29;20039;-72
2023/09/05 02:29:37;;;;;;;19.35;9.55;;;22.30;99.90;;;;;;5127192;28;20023;-72
2023/09/05 02:32:08;;;;;;;18.38;8.88;;;21.90;99.90;;;;;;5127504;28;20035;-72
2023/09/05 02:34:39;;;;;;;17.10;8.57;;;21.90;99.90;;;;;;5125334;28;20031;-72
2023/09/05 02:37:10;;;;;;;12.18;7.72;;;21.80;99.90;;;;;;5125901;28;20476;-74
2023/09/05 02:39:41;;;;;;;27.92;9.77;;;21.90;99.90;;;;;;5127383;28;20035;-72
2023/09/05 02:42:11;;;;;;;16.92;7.97;;;22.00;99.90;;;;;;5124594;28;20070;-73
2023/09/05 02:44:42;;;;;;;16.17;8.07;;;21.90;99.90;;;;;;5126934;28;20376;-72
2023/09/05 02:47:13;;;;;;;21.33;9.43;;;21.90;99.90;;;;;;5125686;28;20042;-72
2023/09/05 02:49:46;;;;;;;20.33;9.25;;;22.00;99.90;;;;;;5126780;28;20026;-77
2023/09/05 02:52:21;;;;;;;17.25;10.35;;;22.00;99.90;;;;;;5126207;28;20380;-78
2023/09/05 02:54:59;;;;;;;19.05;10.27;;;22.00;99.90;;;;;;5126816;28;20027;-77
2023/09/05 02:57:30;;;;;;;15.88;9.88;;;22.10;99.90;;;;;;5126756;28;20031;-72
2023/09/05 03:00:00;;;;;;;13.75;9.77;;;22.10;99.90;;;;;;5126803;28;20030;-73
2023/09/05 03:02:31;;;;;;;14.82;10.23;;;22.10;99.90;;;;;;5125281;28;20027;-76
2023/09/05 03:05:02;;;;;;;20.00;10.98;;;22.20;99.90;;;;;;5109966;29;20055;-74
2023/09/05 03:07:33;;;;;;;13.68;9.43;;;22.10;99.90;;;;;;5124598;28;20055;-73
2023/09/05 03:10:04;;;;;;;18.10;10.63;;;22.20;99.90;;;;;;5125707;29;20039;-76
2023/09/05 03:12:35;;;;;;;17.35;11.73;;;22.20;99.90;;;;;;5126777;28;20349;-73
2023/09/05 03:15:06;;;;;;;22.50;14.18;;;22.00;99.90;;;;;;5125040;29;20038;-73
2023/09/05 03:17:37;;;;;;;19.02;13.45;;;22.00;99.90;;;;;;5125728;28;20050;-76
2023/09/05 03:20:11;;;;;;;19.52;13.50;;;22.20;99.90;;;;;;5125489;28;20039;-76
2023/09/05 03:22:42;;;;;;;15.57;12.88;;;22.10;99.90;;;;;;5125518;29;20030;-75
2023/09/05 03:25:13;;;;;;;19.83;13.27;;;22.20;99.90;;;;;;5126323;28;20032;-77
2023/09/05 03:27:44;;;;;;;15.55;12.00;;;22.20;99.90;;;;;;5126340;28;20023;-75
2023/09/05 03:30:15;;;;;;;15.20;11.25;;;22.10;99.90;;;;;;5121839;28;20042;-78
2023/09/05 03:32:45;;;;;;;11.65;10.27;;;22.30;99.90;;;;;;5111493;29;20471;-78
2023/09/05 03:35:16;;;;;;;14.40;11.35;;;22.40;99.90;;;;;;5123798;28;20031;-77
2023/09/05 03:37:47;;;;;;;16.80;11.35;;;22.50;99.90;;;;;;5125213;28;20097;-75
2023/09/05 03:40:18;;;;;;;14.93;13.27;;;22.30;99.90;;;;;;5126181;28;20016;-74
2023/09/05 03:42:50;;;;;;;15.50;12.23;;;22.20;99.90;;;;;;5123559;28;20039;-74
2023/09/05 03:45:21;;;;;;;15.05;12.07;;;22.20;99.90;;;;;;5125044;28;20024;-75
2023/09/05 03:47:52;;;;;;;13.88;11.77;;;22.30;99.90;;;;;;5125642;28;20034;-75
2023/09/05 03:50:24;;;;;;;20.35;12.23;;;22.20;99.90;;;;;;5125041;28;20042;-74
2023/09/05 03:52:54;;;;;;;17.55;12.07;;;22.10;99.90;;;;;;5122573;28;20035;-76
2023/09/05 03:55:25;;;;;;;15.45;10.55;;;22.10;99.90;;;;;;5124203;28;20459;-75
2023/09/05 03:57:56;;;;;;;20.45;10.68;;;22.10;99.90;;;;;;5125708;28;20086;-75
2023/09/05 04:00:28;;;;;;;19.27;10.65;;;22.10;99.90;;;;;;5125686;28;20042;-75
2023/09/05 04:02:59;;;;;;;16.88;9.50;;;22.00;99.90;;;;;;5119648;28;20036;-75
2023/09/05 04:05:35;;;;;;;17.95;9.77;;;22.10;99.90;;;;;;5120919;29;20494;-75
2023/09/05 04:08:08;;;;;;;15.82;9.52;;;22.00;99.90;;;;;;5124098;28;20040;-74
2023/09/05 04:10:39;;;;;;;16.55;9.02;;;22.10;99.90;;;;;;5124906;28;20412;-74
2023/09/05 04:13:10;;;;;;;18.50;9.38;;;22.10;99.90;;;;;;5123984;29;20173;-75
2023/09/05 04:15:41;;;;;;;18.85;9.98;;;22.10;99.90;;;;;;5125324;28;20011;-79
2023/09/05 04:18:11;;;;;;;18.92;8.95;;;22.00;99.90;;;;;;5125344;28;20035;-75
2023/09/05 04:20:42;;;;;;;18.80;8.40;;;22.10;99.90;;;;;;5125062;28;20101;-76
2023/09/05 04:23:13;;;;;;;21.55;9.68;;;22.20;99.90;;;;;;5125484;28;20391;-76
2023/09/05 04:25:44;;;;;;;24.73;10.27;;;22.30;99.90;;;;;;5125402;28;20027;-76
2023/09/05 04:28:16;;;;;;;25.27;9.73;;;22.40;99.90;;;;;;5125577;28;20038;-76
2023/09/05 04:30:47;;;;;;;25.25;9.75;;;22.30;99.90;;;;;;5124879;28;20122;-76
2023/09/05 04:33:17;;;;;;;21.95;9.50;;;22.30;99.90;;;;;;5125025;28;20131;-75
2023/09/05 04:35:49;;;;;;;18.58;9.68;;;22.30;99.90;;;;;;5123585;28;20059;-75
2023/09/05 04:38:22;;;;;;;21.38;9.60;;;22.40;99.90;;;;;;5124707;29;20356;-75
2023/09/05 04:40:52;;;;;;;19.80;9.40;;;22.40;99.90;;;;;;5125335;29;20027;-75
2023/09/05 04:43:23;;;;;;;23.90;9.60;;;22.40;99.90;;;;;;5122025;28;20070;-76
2023/09/05 04:45:56;;;;;;;21.90;10.02;;;22.50;99.90;;;;;;5124095;28;20162;-75
2023/09/05 04:48:27;;;;;;;23.75;10.32;;;22.50;99.90;;;;;;5124787;28;20035;-76
2023/09/05 04:51:01;;;;;;;28.70;10.88;;;22.50;99.90;;;;;;5123559;28;20036;-76
2023/09/05 04:53:33;;;;;;;22.05;10.07;;;22.50;99.90;;;;;;5125160;28;20047;-76
2023/09/05 04:56:04;;;;;;;29.23;11.13;;;22.50;99.90;;;;;;5125119;28;20034;-75
2023/09/05 04:58:34;;;;;;;27.02;9.93;;;22.60;99.90;;;;;;5125440;28;20020;-75
2023/09/05 05:01:05;;;;;;;23.83;9.88;;;22.60;99.90;;;;;;5124527;28;20036;-73
2023/09/05 05:03:36;;;;;;;18.35;9.98;;;22.70;99.90;;;;;;5124479;28;20033;-74
2023/09/05 05:06:07;;;;;;;26.48;9.90;;;22.70;99.90;;;;;;5124336;28;20403;-75
2023/09/05 05:08:38;;;;;;;20.50;9.23;;;22.70;99.90;;;;;;5123050;29;20058;-75
2023/09/05 05:11:08;;;;;;;21.92;9.77;;;22.70;99.90;;;;;;5124458;28;20123;-74
2023/09/05 05:13:39;;;;;;;22.00;9.35;;;22.60;99.90;;;;;;5123502;29;20468;-77
2023/09/05 05:16:10;;;;;;;20.75;10.15;;;22.60;99.90;;;;;;5123493;29;20027;-75
2023/09/05 05:18:41;;;;;;;19.30;9.35;;;22.70;99.90;;;;;;5124203;28;20053;-75
2023/09/05 05:21:11;;;;;;;20.90;9.73;;;22.80;99.90;;;;;;5124620;28;20027;-75
2023/09/05 05:23:42;;;;;;;20.75;9.43;;;22.80;99.90;;;;;;5124697;28;20102;-75
2023/09/05 05:26:13;;;;;;;22.48;9.35;;;22.90;99.90;;;;;;5123735;28;20023;-76
2023/09/05 05:28:44;;;;;;;19.05;9.70;;;23.00;99.90;;;;;;5127981;28;20114;-79
2023/09/05 05:31:15;;;;;;;18.83;9.30;;;23.00;99.90;;;;;;5126561;28;20448;-78
2023/09/05 05:33:45;;;;;;;26.48;9.77;;;23.10;99.90;;;;;;5126739;29;20023;-75
2023/09/05 05:36:16;;;;;;;22.77;9.82;;;23.00;99.90;;;;;;5126515;29;20031;-75
2023/09/05 05:38:47;;;;;;;18.70;10.52;;;23.00;99.90;;;;;;5127256;28;20110;-76
2023/09/05 05:41:18;;;;;;;23.98;10.00;;;23.00;99.90;;;;;;5128577;28;20035;-75
2023/09/05 05:43:49;;;;;;;20.77;10.65;;;23.00;99.90;;;;;;5128238;28;20081;-77
2023/09/05 05:46:20;;;;;;;27.80;12.23;;;23.00;99.90;;;;;;5127514;28;20027;-75
2023/09/05 05:48:51;;;;;;;29.70;11.70;;;23.00;99.90;;;;;;5125171;29;20031;-76
2023/09/05 05:51:22;;;;;;;23.27;10.93;;;23.00;99.90;;;;;;5127054;28;20034;-77
2023/09/05 05:53:53;;;;;;;22.52;9.93;;;23.10;99.90;;;;;;5127115;29;20027;-76
2023/09/05 05:56:24;;;;;;;23.63;10.82;;;23.10;99.90;;;;;;5124121;28;20047;-76
2023/09/05 05:58:55;;;;;;;20.00;11.32;;;23.20;99.90;;;;;;5125620;29;20019;-75
2023/09/05 06:01:26;;;;;;;19.77;10.60;;;23.30;99.90;;;;;;5126786;28;20050;-75
2023/09/05 06:03:56;;;;;;;24.25;11.38;;;23.30;99.90;;;;;;5127351;28;20027;-77
2023/09/05 06:06:27;;;;;;;17.40;10.35;;;23.30;99.90;;;;;;5124316;28;20034;-75
2023/09/05 06:08:58;;;;;;;20.23;10.23;;;23.40;99.90;;;;;;5125790;28;20070;-76
2023/09/05 06:11:29;;;;;;;19.98;10.05;;;23.50;99.90;;;;;;5126603;28;20047;-75
2023/09/05 06:14:00;;;;;;;22.13;10.50;;;23.50;99.90;;;;;;5126644;28;20027;-76
2023/09/05 06:16:32;;;;;;;18.05;10.15;;;23.50;99.90;;;;;;5127365;28;20023;-76
2023/09/05 06:19:03;;;;;;;18.73;10.02;;;23.60;99.90;;;;;;5125851;29;20480;-78
2023/09/05 06:21:35;;;;;;;20.35;10.55;;;23.80;99.90;;;;;;5119596;29;20066;-79
2023/09/05 06:24:06;;;;;;;21.13;10.63;;;23.90;99.90;;;;;;5127239;28;20563;-79
2023/09/05 06:26:41;;;;;;;20.77;10.55;;;24.10;99.90;;;;;;5125275;28;20118;-77
2023/09/05 06:29:12;;;;;;;17.48;11.30;;;24.30;99.90;;;;;;5125544;28;20077;-74
2023/09/05 06:31:43;;;;;;;16.92;10.13;;;24.40;99.90;;;;;;5126277;28;20051;-76
2023/09/05 06:34:14;;;;;;;14.27;9.77;;;24.30;99.90;;;;;;5124966;29;20337;-79
2023/09/05 06:36:45;;;;;;;13.95;10.43;;;24.30;99.90;;;;;;5125061;28;20082;-77
2023/09/05 06:39:17;;;;;;;13.20;10.27;;;24.20;99.90;;;;;;5125720;28;20341;-80
2023/09/05 06:41:48;;;;;;;14.98;10.20;;;24.20;99.90;;;;;;5125831;28;20028;-76
2023/09/05 06:44:18;;;;;;;16.27;10.88;;;24.10;99.90;;;;;;5127260;28;20034;-79
2023/09/05 06:46:49;;;;;;;14.57;9.48;;;23.90;99.90;;;;;;5127133;28;20027;-77
2023/09/05 06:49:20;;;;;;;11.43;7.65;;;24.10;99.90;;;;;;5142142;28;20070;-77
2023/09/05 06:51:52;;;;;;;15.75;8.20;;;23.90;99.90;;;;;;5127259;28;20432;-77
2023/09/05 06:54:23;;;;;;;15.90;8.68;;;24.00;99.90;;;;;;5127033;28;20035;-78
2023/09/05 06:56:54;;;;;;;15.38;8.65;;;24.00;99.90;;;;;;5127189;28;20090;-77
2023/09/05 06:59:25;;;;;;;14.65;7.43;;;24.00;99.90;;;;;;5127179;28;20028;-77
2023/09/05 07:01:56;;;;;;;15.38;7.82;;;24.00;99.90;;;;;;5126648;28;20387;-80
2023/09/05 07:04:26;;;;;;;13.55;6.95;;;24.20;99.90;;;;;;5126723;28;20066;-76
2023/09/05 07:07:00;;;;;;;15.05;7.50;;;24.40;99.90;;;;;;5126496;28;20046;-76
2023/09/05 07:09:31;;;;;;;12.35;7.70;;;24.60;99.90;;;;;;5126791;28;20059;-76
2023/09/05 07:12:04;;;;;;;10.32;6.93;;;24.60;99.90;;;;;;5125393;28;20043;-76
2023/09/05 07:14:35;;;;;;;11.73;7.22;;;24.70;99.90;;;;;;5124936;28;20554;-76
2023/09/05 07:17:07;;;;;;;12.43;7.20;;;24.70;99.90;;;;;;5126041;28;20571;-77
2023/09/05 07:19:38;;;;;;;13.30;6.65;;;24.90;99.90;;;;;;5126317;28;20380;-78
2023/09/05 07:22:09;;;;;;;11.45;7.68;;;25.00;99.90;;;;;;5126397;28;20074;-79
2023/09/05 07:24:48;;;;;;;12.95;7.45;;;25.20;99.90;;;;;;5126489;28;20028;-78
2023/09/05 07:27:20;;;;;;;10.65;6.72;;;25.10;99.90;;;;;;5126105;28;20039;-79
2023/09/05 07:29:51;;;;;;;11.75;7.07;;;25.10;99.90;;;;;;5126339;28;20031;-77
2023/09/05 07:32:21;;;;;;;9.15;5.95;;;25.40;99.90;;;;;;5126442;28;20090;-77
2023/09/05 07:34:52;;;;;;;7.95;7.07;;;25.50;99.90;;;;;;5126401;28;20034;-77
2023/09/05 07:37:23;;;;;;;8.30;6.78;;;25.60;99.90;;;;;;5126232;28;20030;-80
2023/09/05 07:39:54;;;;;;;8.80;7.22;;;25.80;99.90;;;;;;5126492;28;20032;-77
2023/09/05 07:42:27;;;;;;;8.55;7.65;;;25.80;99.90;;;;;;5126184;28;20023;-80
2023/09/05 07:44:58;;;;;;;8.82;7.97;;;25.90;99.90;;;;;;5125988;28;20471;-77
2023/09/05 07:47:29;;;;;;;8.60;7.53;;;26.00;99.90;;;;;;5124349;28;20031;-79
2023/09/05 07:50:01;;;;;;;10.13;9.13;;;26.20;99.90;;;;;;5125158;28;20031;-80
2023/09/05 07:52:34;;;;;;;9.85;8.95;;;26.20;99.90;;;;;;5123829;28;20039;-74
2023/09/05 07:55:05;;;;;;;14.85;8.45;;;26.20;99.90;;;;;;5115308;29;20059;-76
2023/09/05 07:57:36;;;;;;;16.05;6.95;;;25.60;99.90;;;;;;5122596;29;20027;-78
2023/09/05 08:00:11;;;;;;;14.27;6.40;;;25.20;99.90;;;;;;5120220;28;20031;-77
2023/09/05 08:02:42;;;;;;;16.90;6.60;;;25.10;99.90;;;;;;5115596;29;20051;-76
2023/09/05 08:05:13;;;;;;;13.23;6.85;;;24.90;99.90;;;;;;5113960;28;20035;-76
2023/09/05 08:07:44;;;;;;;15.20;7.72;;;24.70;99.90;;;;;;5119926;29;20106;-76
2023/09/05 08:10:15;;;;;;;11.35;6.43;;;24.70;99.90;;;;;;5123496;28;20066;-75
2023/09/05 08:12:46;;;;;;;15.35;7.32;;;24.70;99.90;;;;;;5125460;28;20067;-76
2023/09/05 08:15:17;;;;;;;11.80;6.78;;;24.70;99.90;;;;;;5124892;28;20090;-75
2023/09/05 08:17:48;;;;;;;14.77;6.20;;;24.60;99.90;;;;;;5125293;28;20061;-76
2023/09/05 08:20:20;;;;;;;9.80;6.28;;;24.50;99.90;;;;;;5125472;28;20059;-78
2023/09/05 08:22:51;;;;;;;13.07;6.22;;;24.30;99.90;;;;;;5124340;28;20766;-82
2023/09/05 08:25:23;;;;;;;15.75;7.63;;;24.10;99.90;;;;;;5125098;28;20039;-75
2023/09/05 08:27:55;;;;;;;17.55;7.13;;;24.10;99.90;;;;;;5125343;28;20601;-88
2023/09/05 08:30:28;;;;;;;22.83;8.48;;;24.00;99.90;;;;;;5124432;28;20066;-79
2023/09/05 08:33:01;;;;;;;22.23;8.15;;;23.70;99.90;;;;;;5122204;28;20055;-75
2023/09/05 08:35:32;;;;;;;12.52;6.18;;;23.50;99.90;;;;;;5121637;28;20027;-75
2023/09/05 08:38:05;;;;;;;15.20;6.97;;;23.20;99.90;;;;;;5123879;28;20498;-82
2023/09/05 08:40:36;;;;;;;19.23;7.75;;;23.20;99.90;;;;;;5123615;28;20031;-79
2023/09/05 08:43:07;;;;;;;15.07;8.05;;;23.30;99.90;;;;;;5125171;28;20468;-76
2023/09/05 08:45:41;;;;;;;24.70;11.10;;;23.00;99.90;;;;;;5124522;28;20034;-75
2023/09/05 08:48:12;;;;;;;12.93;9.13;;;22.90;99.90;;;;;;5125055;28;20035;-76
2023/09/05 08:50:43;;;;;;;16.40;9.18;;;22.80;99.90;;;;;;5124055;28;20059;-78
2023/09/05 08:53:18;;;;;;;13.07;8.52;;;22.70;99.90;;;;;;5123492;28;20464;-75
2023/09/05 08:55:49;;;;;;;14.38;8.10;;;22.80;99.90;;;;;;5120649;29;20027;-77
2023/09/05 08:58:21;;;;;;;19.50;9.05;;;22.60;99.90;;;;;;5107718;29;20480;-78
2023/09/05 09:00:52;;;;;;;14.07;9.20;;;22.70;99.90;;;;;;5123512;28;20041;-78
2023/09/05 09:03:23;;;;;;;13.63;7.95;;;22.60;99.90;;;;;;5123398;28;20475;-76
2023/09/05 09:05:55;;;;;;;13.23;8.80;;;22.60;99.90;;;;;;5125800;29;20030;-75
2023/09/05 09:08:25;;;;;;;12.93;8.43;;;22.60;99.90;;;;;;5121548;28;20046;-75
2023/09/05 09:11:07;;;;;;;13.05;9.68;;;22.60;99.90;;;;;;5127554;28;20047;-76
2023/09/05 09:13:52;;;;;;;12.77;8.73;;;22.60;99.90;;;;;;5127458;28;20027;-82
2023/09/05 09:16:25;;;;;;;12.68;8.73;;;22.50;99.90;;;;;;5125157;29;20051;-82
2023/09/05 09:19:03;;;;;;;17.23;9.00;;;22.70;99.90;;;;;;5128060;28;20018;-82
2023/09/05 09:21:36;;;;;;;16.23;9.40;;;22.60;99.90;;;;;;5121500;29;20380;-75
2023/09/05 09:24:10;;;;;;;15.48;8.77;;;22.60;99.90;;;;;;5126009;28;20476;-78
2023/09/05 09:26:40;;;;;;;14.38;8.40;;;22.70;99.90;;;;;;5124440;28;20019;-79
2023/09/05 09:29:11;;;;;;;14.73;8.55;;;22.70;99.90;;;;;;5128008;28;20038;-77
2023/09/05 09:31:45;;;;;;;12.95;9.27;;;22.80;99.90;;;;;;5128241;28;20114;-79
2023/09/05 09:34:19;;;;;;;17.23;8.70;;;22.80;99.90;;;;;;5127174;28;20042;-77
2023/09/05 09:36:53;;;;;;;19.00;8.90;;;22.80;99.90;;;;;;5127968;28;20483;-76
2023/09/05 09:39:25;;;;;;;14.60;9.52;;;23.10;99.90;;;;;;5124018;29;20047;-75
2023/09/05 09:42:00;;;;;;;18.35;9.43;;;23.20;99.90;;;;;;5127144;28;20376;-78
2023/09/05 09:44:34;;;;;;;16.75;9.25;;;23.20;99.90;;;;;;5127970;28;20023;-76
2023/09/05 09:47:04;;;;;;;14.85;9.00;;;23.10;99.90;;;;;;5127499;28;20035;-74
2023/09/05 09:49:42;;;;;;;16.98;9.35;;;23.30;99.90;;;;;;5127761;28;20027;-74
2023/09/05 09:52:16;;;;;;;15.65;9.60;;;23.30;99.90;;;;;;5127259;28;20039;-74
2023/09/05 09:54:48;;;;;;;13.45;9.15;;;23.50;99.90;;;;;;5125426;29;20412;-74
2023/09/05 09:57:28;;;;;;;14.70;8.80;;;23.50;99.90;;;;;;5124284;28;20031;-75
2023/09/05 10:00:15;;;;;;;17.92;8.48;;;23.50;99.90;;;;;;5127649;28;20024;-81
2023/09/05 10:02:46;;;;;;;13.27;7.97;;;23.70;99.90;;;;;;5127853;28;20031;-85
2023/09/05 10:05:19;;;;;;;18.70;8.73;;;23.80;99.90;;;;;;5127684;28;20035;-79
2023/09/05 10:07:52;;;;;;;15.13;9.30;;;24.00;99.90;;;;;;5127095;28;20043;-76
2023/09/05 10:10:25;;;;;;;16.67;8.75;;;24.20;99.90;;;;;;5128214;28;20036;-75
2023/09/05 10:12:57;;;;;;;15.43;8.77;;;24.30;99.90;;;;;;5127722;28;20035;-80
2023/09/05 10:15:29;;;;;;;15.43;7.95;;;24.40;99.90;;;;;;5125940;29;20033;-74
2023/09/05 10:18:01;;;;;;;13.30;7.72;;;24.40;99.90;;;;;;5125397;28;20039;-75
2023/09/05 10:20:34;;;;;;;13.52;7.30;;;24.60;99.90;;;;;;5124213;28;20011;-74
2023/09/05 10:23:06;;;;;;;20.00;7.93;;;25.00;99.90;;;;;;5127375;28;20033;-74
2023/09/05 10:25:41;;;;;;;12.32;7.70;;;24.90;99.90;;;;;;5127258;28;20684;-75
2023/09/05 10:28:11;;;;;;;13.30;8.32;;;25.00;99.90;;;;;;5125540;29;20074;-75
2023/09/05 10:30:49;;;;;;;13.35;8.40;;;25.10;99.90;;;;;;5121363;28;20584;-74
2023/09/05 10:33:37;;;;;;;20.88;9.40;;;25.40;99.90;;;;;;5127039;28;20497;-74
2023/09/05 10:36:40;;;;;;;15.18;8.15;;;25.50;99.90;;;;;;5127017;28;21258;-75
2023/09/05 10:39:22;;;;;;;15.98;9.70;;;25.60;99.90;;;;;;5124904;29;20055;-74
2023/09/05 10:41:53;;;;;;;12.27;7.85;;;25.60;99.90;;;;;;5120729;29;20055;-75
2023/09/05 10:44:24;;;;;;;15.65;8.43;;;25.40;99.90;;;;;;5126971;28;20023;-81
2023/09/05 10:46:55;;;;;;;15.48;7.32;;;25.50;99.90;;;;;;5125353;28;20035;-76
2023/09/05 10:49:29;;;;;;;13.40;6.93;;;25.30;99.90;;;;;;5126933;29;20095;-76
2023/09/05 10:52:19;;;;;;;10.77;6.95;;;25.30;99.90;;;;;;5127095;28;20035;-76
2023/09/05 10:54:50;;;;;;;14.43;7.53;;;25.20;99.90;;;;;;5125395;28;20063;-77
2023/09/05 10:57:43;;;;;;;11.52;7.35;;;25.20;99.90;;;;;;5126962;28;20047;-81
2023/09/05 11:00:17;;;;;;;11.95;7.53;;;25.10;99.90;;;;;;5126946;28;20023;-76
2023/09/05 11:02:49;;;;;;;15.57;8.27;;;25.20;99.90;;;;;;5125094;28;20053;-76
2023/09/05 11:05:20;;;;;;;13.45;7.43;;;25.10;99.90;;;;;;5127087;29;20027;-76
2023/09/05 11:07:54;;;;;;;9.15;6.53;;;25.00;99.90;;;;;;5124508;29;20086;-77
2023/09/05 11:10:31;;;;;;;13.45;7.32;;;24.90;99.90;;;;;;5125171;29;20507;-76
2023/09/05 11:13:14;;;;;;;15.45;7.95;;;24.90;99.90;;;;;;5123194;29;20042;-75
2023/09/05 11:15:45;;;;;;;13.15;7.55;;;24.70;99.90;;;;;;5119917;29;20019;-75
2023/09/05 11:18:17;;;;;;;12.55;7.35;;;24.60;99.90;;;;;;5141399;28;20030;-75
2023/09/05 11:20:49;;;;;;;12.82;7.65;;;24.60;99.90;;;;;;5126458;28;20023;-79
2023/09/05 11:23:28;;;;;;;14.43;7.35;;;24.90;99.90;;;;;;5126735;28;20023;-75
2023/09/05 11:26:06;;;;;;;11.17;6.70;;;25.10;99.90;;;;;;5125294;28;20031;-76
2023/09/05 11:28:37;;;;;;;10.88;6.80;;;25.30;99.90;;;;;;5124043;28;20098;-75
2023/09/05 11:31:11;;;;;;;12.95;7.47;;;25.30;99.90;;;;;;5122785;28;20178;-81
2023/09/05 11:33:42;;;;;;;13.32;6.88;;;25.40;99.90;;;;;;5108232;29;20082;-75
2023/09/05 11:36:12;;;;;;;10.10;6.57;;;25.80;99.90;;;;;;5124779;29;20367;-78
2023/09/05 11:38:48;;;;;;;10.77;6.90;;;25.80;99.90;;;;;;5125930;28;20023;-76
2023/09/05 11:41:20;;;;;;;10.95;7.32;;;25.50;99.90;;;;;;5124200;29;20164;-81
2023/09/05 11:43:53;;;;;;;11.73;7.53;;;25.30;99.90;;;;;;5124129;28;20545;-76
2023/09/05 11:46:26;;;;;;;13.75;7.95;;;25.50;99.90;;;;;;5126128;28;20034;-74
2023/09/05 11:48:58;;;;;;;11.35;7.82;;;25.80;99.90;;;;;;5125668;28;20542;-75
2023/09/05 11:51:29;;;;;;;9.88;7.53;;;26.10;99.90;;;;;;5140820;28;20479;-76
2023/09/05 11:54:00;;;;;;;11.70;7.85;;;26.40;99.90;;;;;;5123520;28;20038;-77
2023/09/05 11:56:31;;;;;;;11.00;6.38;;;26.10;99.90;;;;;;5124188;28;20133;-76
2023/09/05 11:59:02;;;;;;;15.38;7.47;;;26.10;99.90;;;;;;5125638;29;20128;-76
2023/09/05 12:01:33;;;;;;;15.60;9.48;;;26.10;99.90;;;;;;5125718;29;20019;-76
2023/09/05 12:04:04;;;;;;;16.70;8.23;;;26.10;99.90;;;;;;5125447;29;20031;-76
2023/09/05 12:06:35;;;;;;;16.13;8.77;;;26.30;99.90;;;;;;5124615;28;20376;-76
2023/09/05 12:09:09;;;;;;;12.23;8.20;;;26.30;99.90;;;;;;5115773;29;20043;-76
2023/09/05 12:11:40;;;;;;;10.63;7.38;;;26.40;99.90;;;;;;5124539;29;20058;-81
2023/09/05 12:14:11;;;;;;;10.57;7.32;;;26.30;99.90;;;;;;5125310;28;20156;-75
2023/09/05 12:16:47;;;;;;;15.77;7.40;;;26.20;99.90;;;;;;5124151;29;20480;-76
2023/09/05 12:19:18;;;;;;;15.73;6.75;;;26.50;99.90;;;;;;5123174;28;20074;-76
2023/09/05 12:21:48;;;;;;;8.95;6.30;;;26.50;99.90;;;;;;5124391;29;20023;-79
2023/09/05 12:24:23;;;;;;;10.13;8.27;;;26.70;99.90;;;;;;5125276;28;20082;-76
2023/09/05 12:26:55;;;;;;;8.70;7.82;;;26.60;99.90;;;;;;5123705;29;20031;-75
2023/09/05 12:29:41;;;;;;;9.98;7.05;;;26.40;99.90;;;;;;5125645;28;20027;-76
2023/09/05 12:32:12;;;;;;;15.20;7.75;;;26.20;99.90;;;;;;5124520;28;20488;-76
2023/09/05 12:34:43;;;;;;;11.15;7.88;;;26.20;99.90;;;;;;5120022;29;20031;-76
2023/09/05 12:37:14;;;;;;;15.70;8.13;;;26.10;99.90;;;;;;5105507;29;20040;-87
2023/09/05 12:39:45;;;;;;;11.18;6.85;;;26.10;99.90;;;;;;5122826;29;20547;-86
2023/09/05 12:42:18;;;;;;;15.98;7.80;;;25.70;99.90;;;;;;5122789;29;20031;-83
2023/09/05 12:44:50;;;;;;;9.20;6.25;;;25.60;99.90;;;;;;5122247;28;20460;-88
2023/09/05 12:47:21;;;;;;;10.65;5.82;;;25.80;99.90;;;;;;5123741;28;20062;-87
2023/09/05 12:49:53;;;;;;;9.48;6.40;;;25.80;99.90;;;;;;5122304;28;20031;-76
2023/09/05 12:52:24;;;;;;;15.45;7.22;;;26.10;99.90;;;;;;5119948;29;20049;-79
2023/09/05 12:54:58;;;;;;;15.07;7.32;;;26.00;99.90;;;;;;5124402;28;20070;-77
2023/09/05 12:57:28;;;;;;;7.68;5.68;;;26.00;99.90;;;;;;5124357;28;20038;-76